sensor_id;sensor_type;location;lat;lon;timestamp;temperature;humidity
3566;DHT22;1797;51.844;7.684;2023-04-03T00:01:00;4.10;1.00
3566;DHT22;1797;51.844;7.684;2023-04-03T00:03:25;4.10;1.00
3566;DHT22;1797;51.844;7.684;2023-04-03T00:05:51;4.00;26.90
3566;DHT22;1797;51.844;7.684;2023-04-03T00:08:17;4.00;91.10
3566;DHT22;1797;51.844;7.684;2023-04-03T00:10:43;4.00;81.80
3566;DHT22;1797;51.844;7.684;2023-04-03T00:13:09;4.00;48.30
3566;DHT22;1797;51.844;7.684;2023-04-03T00:15:36;3.90;99.90
3566;DHT22;1797;51.844;7.684;2023-04-03T00:18:03;3.90;99.90
3566;DHT22;1797;51.844;7.684;2023-04-03T00:20:28;3.80;99.90
3566;DHT22;1797;51.844;7.684;2023-04-03T00:22:54;3.80;99.90
3566;DHT22;1797;51.844;7.684;2023-04-03T00:25:20;3.70;99.90
3566;DHT22;1797;51.844;7.684;2023-04-03T00:27:46;3.70;99.90
3566;DHT22;1797;51.844;7.684;2023-04-03T00:30:14;3.60;99.90
3566;DHT22;1797;51.844;7.684;2023-04-03T00:32:40;3.50;99.90
3566;DHT22;1797;51.844;7.684;2023-04-03T00:35:06;3.60;99.90
3566;DHT22;1797;51.844;7.684;2023-04-03T00:37:32;3.60;99.90
3566;DHT22;1797;51.844;7.684;2023-04-03T00:39:58;3.60;99.90
3566;DHT22;1797;51.844;7.684;2023-04-03T00:42:24;3.60;99.90
3566;DHT22;1797;51.844;7.684;2023-04-03T00:47:18;3.50;99.90
3566;DHT22;1797;51.844;7.684;2023-04-03T00:49:45;3.40;99.90
3566;DHT22;1797;51.844;7.684;2023-04-03T00:52:18;3.30;99.90
3566;DHT22;1797;51.844;7.684;2023-04-03T00:54:46;3.30;1.00
3566;DHT22;1797;51.844;7.684;2023-04-03T00:57:13;3.20;1.00
3566;DHT22;1797;51.844;7.684;2023-04-03T00:59:43;3.20;1.00
3566;DHT22;1797;51.844;7.684;2023-04-03T01:02:11;3.20;1.00
3566;DHT22;1797;51.844;7.684;2023-04-03T01:04:39;3.10;1.00
3566;DHT22;1797;51.844;7.684;2023-04-03T01:07:15;3.10;1.00
3566;DHT22;1797;51.844;7.684;2023-04-03T01:09:42;3.10;1.00
3566;DHT22;1797;51.844;7.684;2023-04-03T01:12:18;3.10;1.00
3566;DHT22;1797;51.844;7.684;2023-04-03T01:14:45;3.00;1.00
3566;DHT22;1797;51.844;7.684;2023-04-03T01:17:31;3.00;1.00
3566;DHT22;1797;51.844;7.684;2023-04-03T01:22:52;2.90;1.00
3566;DHT22;1797;51.844;7.684;2023-04-03T01:25:21;2.90;1.00
3566;DHT22;1797;51.844;7.684;2023-04-03T01:27:47;2.80;1.00
3566;DHT22;1797;51.844;7.684;2023-04-03T01:30:14;2.70;1.00
3566;DHT22;1797;51.844;7.684;2023-04-03T01:32:42;2.70;1.00
3566;DHT22;1797;51.844;7.684;2023-04-03T01:35:08;2.60;1.00
3566;DHT22;1797;51.844;7.684;2023-04-03T01:37:34;2.60;1.00
3566;DHT22;1797;51.844;7.684;2023-04-03T01:40:00;2.60;1.00
3566;DHT22;1797;51.844;7.684;2023-04-03T01:42:26;2.50;1.00
3566;DHT22;1797;51.844;7.684;2023-04-03T01:44:51;2.50;2.70
3566;DHT22;1797;51.844;7.684;2023-04-03T01:47:17;2.50;27.40
3566;DHT22;1797;51.844;7.684;2023-04-03T01:49:42;2.40;80.30
3566;DHT22;1797;51.844;7.684;2023-04-03T01:52:08;2.40;99.90
3566;DHT22;1797;51.844;7.684;2023-04-03T01:54:34;2.40;99.90
3566;DHT22;1797;51.844;7.684;2023-04-03T01:56:59;2.40;99.90
3566;DHT22;1797;51.844;7.684;2023-04-03T01:59:25;2.30;99.90
3566;DHT22;1797;51.844;7.684;2023-04-03T02:01:51;2.30;99.90
3566;DHT22;1797;51.844;7.684;2023-04-03T02:04:16;2.30;99.90
3566;DHT22;1797;51.844;7.684;2023-04-03T02:06:42;2.20;99.90
3566;DHT22;1797;51.844;7.684;2023-04-03T02:09:07;2.20;99.90
3566;DHT22;1797;51.844;7.684;2023-04-03T02:11:33;2.20;99.90
3566;DHT22;1797;51.844;7.684;2023-04-03T02:13:58;2.10;99.90
3566;DHT22;1797;51.844;7.684;2023-04-03T02:16:24;2.00;99.90
3566;DHT22;1797;51.844;7.684;2023-04-03T02:18:50;2.00;1.00
3566;DHT22;1797;51.844;7.684;2023-04-03T02:21:16;2.00;1.00
3566;DHT22;1797;51.844;7.684;2023-04-03T02:23:41;1.90;1.00
3566;DHT22;1797;51.844;7.684;2023-04-03T02:26:09;1.90;1.00
3566;DHT22;1797;51.844;7.684;2023-04-03T02:28:36;1.90;1.00
3566;DHT22;1797;51.844;7.684;2023-04-03T02:31:02;1.80;1.00
3566;DHT22;1797;51.844;7.684;2023-04-03T02:33:28;1.80;1.00
3566;DHT22;1797;51.844;7.684;2023-04-03T02:35:54;1.80;1.00
3566;DHT22;1797;51.844;7.684;2023-04-03T02:38:21;1.80;1.00
3566;DHT22;1797;51.844;7.684;2023-04-03T02:40:47;1.80;1.00
3566;DHT22;1797;51.844;7.684;2023-04-03T02:43:13;1.70;1.00
3566;DHT22;1797;51.844;7.684;2023-04-03T02:45:38;1.80;1.00
3566;DHT22;1797;51.844;7.684;2023-04-03T02:48:04;1.70;1.00
3566;DHT22;1797;51.844;7.684;2023-04-03T02:50:30;1.70;1.00
3566;DHT22;1797;51.844;7.684;2023-04-03T02:52:55;1.70;1.00
3566;DHT22;1797;51.844;7.684;2023-04-03T02:55:21;1.70;1.00
3566;DHT22;1797;51.844;7.684;2023-04-03T02:57:47;1.60;1.00
3566;DHT22;1797;51.844;7.684;2023-04-03T03:00:13;1.60;1.00
3566;DHT22;1797;51.844;7.684;2023-04-03T03:02:39;1.60;1.00
3566;DHT22;1797;51.844;7.684;2023-04-03T03:05:05;1.50;1.00
3566;DHT22;1797;51.844;7.684;2023-04-03T03:07:31;1.50;1.00
3566;DHT22;1797;51.844;7.684;2023-04-03T03:09:56;1.50;1.00
3566;DHT22;1797;51.844;7.684;2023-04-03T03:12:22;1.50;72.70
3566;DHT22;1797;51.844;7.684;2023-04-03T03:14:49;1.40;53.60
3566;DHT22;1797;51.844;7.684;2023-04-03T03:17:15;1.40;99.90
3566;DHT22;1797;51.844;7.684;2023-04-03T03:19:41;1.40;99.90
3566;DHT22;1797;51.844;7.684;2023-04-03T03:22:07;1.30;99.90
3566;DHT22;1797;51.844;7.684;2023-04-03T03:24:32;1.30;99.90
3566;DHT22;1797;51.844;7.684;2023-04-03T03:26:58;1.30;99.90
3566;DHT22;1797;51.844;7.684;2023-04-03T03:29:24;1.20;99.90
3566;DHT22;1797;51.844;7.684;2023-04-03T03:31:49;1.30;99.90
3566;DHT22;1797;51.844;7.684;2023-04-03T03:34:15;1.30;63.10
3566;DHT22;1797;51.844;7.684;2023-04-03T03:36:41;1.20;99.90
3566;DHT22;1797;51.844;7.684;2023-04-03T03:39:07;1.20;99.90
3566;DHT22;1797;51.844;7.684;2023-04-03T03:41:32;1.20;99.90
3566;DHT22;1797;51.844;7.684;2023-04-03T03:43:58;1.10;99.90
3566;DHT22;1797;51.844;7.684;2023-04-03T03:46:23;1.00;99.90
3566;DHT22;1797;51.844;7.684;2023-04-03T03:48:49;1.00;99.90
3566;DHT22;1797;51.844;7.684;2023-04-03T03:51:15;1.00;99.90
3566;DHT22;1797;51.844;7.684;2023-04-03T03:53:41;1.20;99.90
3566;DHT22;1797;51.844;7.684;2023-04-03T03:56:06;0.90;99.90
3566;DHT22;1797;51.844;7.684;2023-04-03T03:58:32;1.00;99.90
3566;DHT22;1797;51.844;7.684;2023-04-03T04:01:02;1.00;99.90
3566;DHT22;1797;51.844;7.684;2023-04-03T04:03:28;0.90;99.90
3566;DHT22;1797;51.844;7.684;2023-04-03T04:05:54;0.80;99.90
3566;DHT22;1797;51.844;7.684;2023-04-03T04:08:20;0.70;99.90
3566;DHT22;1797;51.844;7.684;2023-04-03T04:10:45;0.60;1.00
3566;DHT22;1797;51.844;7.684;2023-04-03T04:13:11;0.60;1.00
3566;DHT22;1797;51.844;7.684;2023-04-03T04:15:36;0.60;58.70
3566;DHT22;1797;51.844;7.684;2023-04-03T04:18:02;0.60;2.80
3566;DHT22;1797;51.844;7.684;2023-04-03T04:20:28;0.60;19.70
3566;DHT22;1797;51.844;7.684;2023-04-03T04:22:54;0.60;85.00
3566;DHT22;1797;51.844;7.684;2023-04-03T04:25:20;0.50;55.10
3566;DHT22;1797;51.844;7.684;2023-04-03T04:27:45;0.50;10.70
3566;DHT22;1797;51.844;7.684;2023-04-03T04:30:11;0.40;99.90
3566;DHT22;1797;51.844;7.684;2023-04-03T04:32:37;0.40;99.90
3566;DHT22;1797;51.844;7.684;2023-04-03T04:35:03;0.40;99.90
3566;DHT22;1797;51.844;7.684;2023-04-03T04:37:29;0.30;99.90
3566;DHT22;1797;51.844;7.684;2023-04-03T04:39:55;0.30;1.00
3566;DHT22;1797;51.844;7.684;2023-04-03T04:42:21;0.20;1.00
3566;DHT22;1797;51.844;7.684;2023-04-03T04:44:46;0.20;1.00
3566;DHT22;1797;51.844;7.684;2023-04-03T04:47:12;0.20;1.00
3566;DHT22;1797;51.844;7.684;2023-04-03T04:49:38;0.20;1.00
3566;DHT22;1797;51.844;7.684;2023-04-03T04:52:03;0.20;1.00
3566;DHT22;1797;51.844;7.684;2023-04-03T04:54:29;0.20;1.00
3566;DHT22;1797;51.844;7.684;2023-04-03T04:56:55;0.30;1.00
3566;DHT22;1797;51.844;7.684;2023-04-03T04:59:20;0.20;1.00
3566;DHT22;1797;51.844;7.684;2023-04-03T05:01:46;0.20;1.00
3566;DHT22;1797;51.844;7.684;2023-04-03T05:04:12;0.20;1.00
3566;DHT22;1797;51.844;7.684;2023-04-03T05:06:38;0.20;1.00
3566;DHT22;1797;51.844;7.684;2023-04-03T05:09:04;0.30;1.00
3566;DHT22;1797;51.844;7.684;2023-04-03T05:11:29;0.20;1.00
3566;DHT22;1797;51.844;7.684;2023-04-03T05:13:55;0.20;1.00
3566;DHT22;1797;51.844;7.684;2023-04-03T05:16:21;0.10;1.00
3566;DHT22;1797;51.844;7.684;2023-04-03T05:18:47;0.10;1.00
3566;DHT22;1797;51.844;7.684;2023-04-03T05:21:12;0.10;99.90
3566;DHT22;1797;51.844;7.684;2023-04-03T05:23:38;0.10;99.90
3566;DHT22;1797;51.844;7.684;2023-04-03T05:26:03;0.00;99.90
3566;DHT22;1797;51.844;7.684;2023-04-03T05:28:29;0.00;99.90
3566;DHT22;1797;51.844;7.684;2023-04-03T05:30:59;0.10;91.10
3566;DHT22;1797;51.844;7.684;2023-04-03T05:33:25;0.10;1.00
3566;DHT22;1797;51.844;7.684;2023-04-03T05:35:52;0.10;1.00
3566;DHT22;1797;51.844;7.684;2023-04-03T05:38:18;0.10;29.00
3566;DHT22;1797;51.844;7.684;2023-04-03T05:40:43;0.10;1.00
3566;DHT22;1797;51.844;7.684;2023-04-03T05:43:09;0.10;1.00
3566;DHT22;1797;51.844;7.684;2023-04-03T05:45:35;0.10;1.00
3566;DHT22;1797;51.844;7.684;2023-04-03T05:48:01;0.10;14.10
3566;DHT22;1797;51.844;7.684;2023-04-03T05:50:27;0.10;99.90
3566;DHT22;1797;51.844;7.684;2023-04-03T05:52:56;0.20;1.00
3566;DHT22;1797;51.844;7.684;2023-04-03T05:55:24;0.20;1.00
3566;DHT22;1797;51.844;7.684;2023-04-03T05:57:49;0.20;1.00
3566;DHT22;1797;51.844;7.684;2023-04-03T06:00:16;0.30;1.00
3566;DHT22;1797;51.844;7.684;2023-04-03T06:02:42;0.30;1.00
3566;DHT22;1797;51.844;7.684;2023-04-03T06:05:09;0.30;1.00
3566;DHT22;1797;51.844;7.684;2023-04-03T06:07:36;0.40;1.00
3566;DHT22;1797;51.844;7.684;2023-04-03T06:10:02;0.40;1.00
3566;DHT22;1797;51.844;7.684;2023-04-03T06:12:28;0.50;99.90
3566;DHT22;1797;51.844;7.684;2023-04-03T06:15:00;0.50;99.90
3566;DHT22;1797;51.844;7.684;2023-04-03T06:17:32;0.60;99.90
3566;DHT22;1797;51.844;7.684;2023-04-03T06:19:57;0.50;56.40
3566;DHT22;1797;51.844;7.684;2023-04-03T06:22:23;0.60;99.90
3566;DHT22;1797;51.844;7.684;2023-04-03T06:24:51;0.60;1.00
3566;DHT22;1797;51.844;7.684;2023-04-03T06:27:16;0.60;1.00
3566;DHT22;1797;51.844;7.684;2023-04-03T06:29:42;0.70;1.00
3566;DHT22;1797;51.844;7.684;2023-04-03T06:32:08;0.60;1.00
3566;DHT22;1797;51.844;7.684;2023-04-03T06:34:34;0.70;1.00
3566;DHT22;1797;51.844;7.684;2023-04-03T06:37:00;0.70;1.00
3566;DHT22;1797;51.844;7.684;2023-04-03T06:39:26;0.80;99.90
3566;DHT22;1797;51.844;7.684;2023-04-03T06:41:52;0.90;99.90
3566;DHT22;1797;51.844;7.684;2023-04-03T06:44:18;0.90;1.00
3566;DHT22;1797;51.844;7.684;2023-04-03T06:46:44;0.90;1.00
3566;DHT22;1797;51.844;7.684;2023-04-03T06:49:10;0.90;1.00
3566;DHT22;1797;51.844;7.684;2023-04-03T06:51:36;0.90;1.00
3566;DHT22;1797;51.844;7.684;2023-04-03T06:54:04;1.00;1.00
3566;DHT22;1797;51.844;7.684;2023-04-03T06:56:31;1.10;1.00
3566;DHT22;1797;51.844;7.684;2023-04-03T06:58:57;1.20;99.90
3566;DHT22;1797;51.844;7.684;2023-04-03T07:01:25;1.20;99.90
3566;DHT22;1797;51.844;7.684;2023-04-03T07:03:51;1.30;1.00
3566;DHT22;1797;51.844;7.684;2023-04-03T07:06:37;1.30;1.00
3566;DHT22;1797;51.844;7.684;2023-04-03T07:09:03;1.30;1.00
3566;DHT22;1797;51.844;7.684;2023-04-03T07:11:32;1.40;1.00
3566;DHT22;1797;51.844;7.684;2023-04-03T07:13:58;1.40;1.00
3566;DHT22;1797;51.844;7.684;2023-04-03T07:16:23;1.50;1.00
3566;DHT22;1797;51.844;7.684;2023-04-03T07:18:49;1.60;1.00
3566;DHT22;1797;51.844;7.684;2023-04-03T07:21:15;1.70;99.90
3566;DHT22;1797;51.844;7.684;2023-04-03T07:23:40;1.70;99.90
3566;DHT22;1797;51.844;7.684;2023-04-03T07:26:06;1.80;99.90
3566;DHT22;1797;51.844;7.684;2023-04-03T07:28:34;1.80;86.40
3566;DHT22;1797;51.844;7.684;2023-04-03T07:31:03;1.90;99.90
3566;DHT22;1797;51.844;7.684;2023-04-03T07:33:29;2.00;99.90
3566;DHT22;1797;51.844;7.684;2023-04-03T07:35:56;2.00;60.50
3566;DHT22;1797;51.844;7.684;2023-04-03T07:38:22;2.10;1.00
3566;DHT22;1797;51.844;7.684;2023-04-03T07:40:49;2.20;1.00
3566;DHT22;1797;51.844;7.684;2023-04-03T07:43:17;2.30;1.00
3566;DHT22;1797;51.844;7.684;2023-04-03T07:45:43;2.30;1.00
3566;DHT22;1797;51.844;7.684;2023-04-03T07:48:13;2.40;1.00
3566;DHT22;1797;51.844;7.684;2023-04-03T07:50:42;2.40;1.00
3566;DHT22;1797;51.844;7.684;2023-04-03T07:53:08;2.70;1.00
3566;DHT22;1797;51.844;7.684;2023-04-03T07:55:34;2.90;1.00
3566;DHT22;1797;51.844;7.684;2023-04-03T07:58:02;3.10;99.90
3566;DHT22;1797;51.844;7.684;2023-04-03T08:00:28;3.30;99.90
3566;DHT22;1797;51.844;7.684;2023-04-03T08:02:55;3.60;99.90
3566;DHT22;1797;51.844;7.684;2023-04-03T08:05:21;3.80;99.90
3566;DHT22;1797;51.844;7.684;2023-04-03T08:07:47;4.10;99.90
3566;DHT22;1797;51.844;7.684;2023-04-03T08:10:14;4.30;82.90
3566;DHT22;1797;51.844;7.684;2023-04-03T08:12:40;4.60;62.60
3566;DHT22;1797;51.844;7.684;2023-04-03T08:15:07;4.80;1.00
3566;DHT22;1797;51.844;7.684;2023-04-03T08:17:34;5.10;1.00
3566;DHT22;1797;51.844;7.684;2023-04-03T08:20:00;5.40;1.00
3566;DHT22;1797;51.844;7.684;2023-04-03T08:22:26;5.50;1.00
3566;DHT22;1797;51.844;7.684;2023-04-03T08:24:51;5.80;1.00
3566;DHT22;1797;51.844;7.684;2023-04-03T08:27:17;6.00;1.00
3566;DHT22;1797;51.844;7.684;2023-04-03T08:29:42;6.20;1.00
3566;DHT22;1797;51.844;7.684;2023-04-03T08:32:08;6.40;1.00
3566;DHT22;1797;51.844;7.684;2023-04-03T08:34:34;6.60;1.00
3566;DHT22;1797;51.844;7.684;2023-04-03T08:37:02;6.70;1.00
3566;DHT22;1797;51.844;7.684;2023-04-03T08:39:28;6.80;1.00
3566;DHT22;1797;51.844;7.684;2023-04-03T08:41:55;6.90;1.00
3566;DHT22;1797;51.844;7.684;2023-04-03T08:47:28;7.10;1.00
3566;DHT22;1797;51.844;7.684;2023-04-03T08:50:02;7.10;1.00
3566;DHT22;1797;51.844;7.684;2023-04-03T08:55:46;7.50;1.00
3566;DHT22;1797;51.844;7.684;2023-04-03T08:57:59;7.40;1.00
3566;DHT22;1797;51.844;7.684;2023-04-03T09:00:41;7.40;1.00
3566;DHT22;1797;51.844;7.684;2023-04-03T09:03:13;7.40;1.00
3566;DHT22;1797;51.844;7.684;2023-04-03T09:05:50;7.40;1.00
3566;DHT22;1797;51.844;7.684;2023-04-03T09:08:22;7.60;1.00
3566;DHT22;1797;51.844;7.684;2023-04-03T09:10:49;7.90;1.00
3566;DHT22;1797;51.844;7.684;2023-04-03T09:14:07;8.20;1.00
3566;DHT22;1797;51.844;7.684;2023-04-03T09:18:58;8.30;1.00
3566;DHT22;1797;51.844;7.684;2023-04-03T09:21:34;8.70;1.00
3566;DHT22;1797;51.844;7.684;2023-04-03T09:24:05;9.10;1.00
3566;DHT22;1797;51.844;7.684;2023-04-03T09:26:33;9.30;1.00
3566;DHT22;1797;51.844;7.684;2023-04-03T09:29:03;9.40;1.00
3566;DHT22;1797;51.844;7.684;2023-04-03T09:31:36;9.50;1.00
3566;DHT22;1797;51.844;7.684;2023-04-03T09:34:07;9.50;1.00
3566;DHT22;1797;51.844;7.684;2023-04-03T09:36:39;9.50;1.00
3566;DHT22;1797;51.844;7.684;2023-04-03T09:39:11;9.50;1.00
3566;DHT22;1797;51.844;7.684;2023-04-03T09:41:37;9.70;1.00
3566;DHT22;1797;51.844;7.684;2023-04-03T09:44:04;9.90;1.00
3566;DHT22;1797;51.844;7.684;2023-04-03T09:46:43;10.00;1.00
3566;DHT22;1797;51.844;7.684;2023-04-03T09:49:10;10.00;1.00
3566;DHT22;1797;51.844;7.684;2023-04-03T09:51:37;10.10;1.00
3566;DHT22;1797;51.844;7.684;2023-04-03T09:54:24;10.10;1.00
3566;DHT22;1797;51.844;7.684;2023-04-03T09:56:53;10.20;1.00
3566;DHT22;1797;51.844;7.684;2023-04-03T09:59:19;10.30;1.00
3566;DHT22;1797;51.844;7.684;2023-04-03T10:04:40;10.10;1.00
3566;DHT22;1797;51.844;7.684;2023-04-03T10:07:35;10.30;1.00
3566;DHT22;1797;51.844;7.684;2023-04-03T10:10:22;10.50;1.00
3566;DHT22;1797;51.844;7.684;2023-04-03T10:13:27;10.70;1.00
3566;DHT22;1797;51.844;7.684;2023-04-03T10:16:12;10.80;1.00
3566;DHT22;1797;51.844;7.684;2023-04-03T10:29:39;11.80;1.00
3566;DHT22;1797;51.844;7.684;2023-04-03T10:34:54;12.30;1.00
3566;DHT22;1797;51.844;7.684;2023-04-03T10:37:29;12.40;1.00
3566;DHT22;1797;51.844;7.684;2023-04-03T10:40:33;12.30;1.00
3566;DHT22;1797;51.844;7.684;2023-04-03T10:48:03;11.90;1.00
3566;DHT22;1797;51.844;7.684;2023-04-03T10:53:04;11.90;1.00
3566;DHT22;1797;51.844;7.684;2023-04-03T10:55:40;11.90;1.00
3566;DHT22;1797;51.844;7.684;2023-04-03T10:58:36;12.00;1.00
3566;DHT22;1797;51.844;7.684;2023-04-03T11:01:09;12.00;1.00
3566;DHT22;1797;51.844;7.684;2023-04-03T11:03:39;12.00;1.00
3566;DHT22;1797;51.844;7.684;2023-04-03T11:06:09;12.00;1.00
3566;DHT22;1797;51.844;7.684;2023-04-03T11:09:03;12.20;1.00
3566;DHT22;1797;51.844;7.684;2023-04-03T11:11:38;12.30;1.00
3566;DHT22;1797;51.844;7.684;2023-04-03T11:14:24;12.50;1.00
3566;DHT22;1797;51.844;7.684;2023-04-03T11:20:03;12.50;1.00
3566;DHT22;1797;51.844;7.684;2023-04-03T11:22:42;12.60;1.00
3566;DHT22;1797;51.844;7.684;2023-04-03T11:31:32;12.80;1.00
3566;DHT22;1797;51.844;7.684;2023-04-03T11:36:23;12.60;99.90
3566;DHT22;1797;51.844;7.684;2023-04-03T11:38:53;12.20;99.90
3566;DHT22;1797;51.844;7.684;2023-04-03T11:41:29;12.30;1.00
3566;DHT22;1797;51.844;7.684;2023-04-03T11:46:54;13.10;1.00
3566;DHT22;1797;51.844;7.684;2023-04-03T11:49:58;13.50;1.00
3566;DHT22;1797;51.844;7.684;2023-04-03T12:08:27;13.80;1.00
3566;DHT22;1797;51.844;7.684;2023-04-03T12:16:32;13.50;99.90
3566;DHT22;1797;51.844;7.684;2023-04-03T12:31:48;12.30;99.90
3566;DHT22;1797;51.844;7.684;2023-04-03T12:38:01;12.90;99.90
3566;DHT22;1797;51.844;7.684;2023-04-03T12:40:06;13.10;1.00
3566;DHT22;1797;51.844;7.684;2023-04-03T12:43:09;13.30;1.00
3566;DHT22;1797;51.844;7.684;2023-04-03T12:46:24;13.40;1.00
3566;DHT22;1797;51.844;7.684;2023-04-03T12:48:39;13.90;1.00
3566;DHT22;1797;51.844;7.684;2023-04-03T12:51:26;13.40;1.00
3566;DHT22;1797;51.844;7.684;2023-04-03T12:54:01;13.70;1.00
3566;DHT22;1797;51.844;7.684;2023-04-03T12:56:30;13.60;99.90
3566;DHT22;1797;51.844;7.684;2023-04-03T12:59:14;13.60;1.00
3566;DHT22;1797;51.844;7.684;2023-04-03T13:01:40;13.50;1.00
3566;DHT22;1797;51.844;7.684;2023-04-03T13:04:05;13.10;99.90
3566;DHT22;1797;51.844;7.684;2023-04-03T13:06:39;12.70;99.90
3566;DHT22;1797;51.844;7.684;2023-04-03T13:09:06;12.90;1.00
3566;DHT22;1797;51.844;7.684;2023-04-03T13:11:43;12.80;99.90
3566;DHT22;1797;51.844;7.684;2023-04-03T13:14:22;12.70;99.90
3566;DHT22;1797;51.844;7.684;2023-04-03T13:19:30;12.70;99.90
3566;DHT22;1797;51.844;7.684;2023-04-03T13:22:11;12.70;1.00
3566;DHT22;1797;51.844;7.684;2023-04-03T13:24:40;12.60;1.00
3566;DHT22;1797;51.844;7.684;2023-04-03T13:27:06;12.30;99.90
3566;DHT22;1797;51.844;7.684;2023-04-03T13:29:35;11.70;99.90
3566;DHT22;1797;51.844;7.684;2023-04-03T13:32:02;11.40;99.90
3566;DHT22;1797;51.844;7.684;2023-04-03T13:34:37;11.40;1.00
3566;DHT22;1797;51.844;7.684;2023-04-03T13:37:04;11.50;99.90
3566;DHT22;1797;51.844;7.684;2023-04-03T13:39:32;11.50;99.90
3566;DHT22;1797;51.844;7.684;2023-04-03T13:42:01;10.90;99.90
3566;DHT22;1797;51.844;7.684;2023-04-03T13:46:59;10.20;99.90
3566;DHT22;1797;51.844;7.684;2023-04-03T13:49:37;10.40;1.00
3566;DHT22;1797;51.844;7.684;2023-04-03T13:52:30;10.80;1.00
3566;DHT22;1797;51.844;7.684;2023-04-03T13:55:01;11.20;1.00
3566;DHT22;1797;51.844;7.684;2023-04-03T13:57:27;11.50;1.00
3566;DHT22;1797;51.844;7.684;2023-04-03T13:59:53;11.70;1.00
3566;DHT22;1797;51.844;7.684;2023-04-03T14:02:26;11.90;1.00
3566;DHT22;1797;51.844;7.684;2023-04-03T14:04:56;12.10;1.00
3566;DHT22;1797;51.844;7.684;2023-04-03T14:07:25;12.30;1.00
3566;DHT22;1797;51.844;7.684;2023-04-03T14:09:51;12.40;1.00
3566;DHT22;1797;51.844;7.684;2023-04-03T14:12:25;12.40;1.00
3566;DHT22;1797;51.844;7.684;2023-04-03T14:14:52;12.10;1.00
3566;DHT22;1797;51.844;7.684;2023-04-03T14:17:24;11.50;1.00
3566;DHT22;1797;51.844;7.684;2023-04-03T14:19:52;11.10;1.00
3566;DHT22;1797;51.844;7.684;2023-04-03T14:22:22;10.90;1.00
3566;DHT22;1797;51.844;7.684;2023-04-03T14:24:49;10.70;1.00
3566;DHT22;1797;51.844;7.684;2023-04-03T14:27:23;10.50;1.00
3566;DHT22;1797;51.844;7.684;2023-04-03T14:29:51;10.10;1.00
3566;DHT22;1797;51.844;7.684;2023-04-03T14:32:19;9.80;1.00
3566;DHT22;1797;51.844;7.684;2023-04-03T14:34:46;9.70;1.00
3566;DHT22;1797;51.844;7.684;2023-04-03T14:37:13;9.70;1.00
3566;DHT22;1797;51.844;7.684;2023-04-03T14:39:41;9.60;1.00
3566;DHT22;1797;51.844;7.684;2023-04-03T14:42:13;9.50;1.00
3566;DHT22;1797;51.844;7.684;2023-04-03T14:44:39;9.50;1.00
3566;DHT22;1797;51.844;7.684;2023-04-03T14:47:16;9.40;1.00
3566;DHT22;1797;51.844;7.684;2023-04-03T14:49:44;9.50;1.00
3566;DHT22;1797;51.844;7.684;2023-04-03T14:52:22;9.40;1.00
3566;DHT22;1797;51.844;7.684;2023-04-03T14:54:48;9.40;1.00
3566;DHT22;1797;51.844;7.684;2023-04-03T14:57:15;9.30;1.00
3566;DHT22;1797;51.844;7.684;2023-04-03T14:59:42;9.20;1.00
3566;DHT22;1797;51.844;7.684;2023-04-03T15:04:51;9.30;1.00
3566;DHT22;1797;51.844;7.684;2023-04-03T15:07:17;9.30;1.00
3566;DHT22;1797;51.844;7.684;2023-04-03T15:09:42;9.20;1.00
3566;DHT22;1797;51.844;7.684;2023-04-03T15:12:08;9.10;1.00
3566;DHT22;1797;51.844;7.684;2023-04-03T15:14:34;9.10;1.00
3566;DHT22;1797;51.844;7.684;2023-04-03T15:17:00;9.00;1.00
3566;DHT22;1797;51.844;7.684;2023-04-03T15:19:25;9.10;1.00
3566;DHT22;1797;51.844;7.684;2023-04-03T15:21:51;9.10;1.00
3566;DHT22;1797;51.844;7.684;2023-04-03T15:24:17;9.10;1.00
3566;DHT22;1797;51.844;7.684;2023-04-03T15:26:42;9.10;1.00
3566;DHT22;1797;51.844;7.684;2023-04-03T15:29:08;9.10;1.00
3566;DHT22;1797;51.844;7.684;2023-04-03T15:31:34;9.10;1.00
3566;DHT22;1797;51.844;7.684;2023-04-03T15:34:00;9.10;1.00
3566;DHT22;1797;51.844;7.684;2023-04-03T15:36:26;9.10;1.00
3566;DHT22;1797;51.844;7.684;2023-04-03T15:38:51;9.10;1.00
3566;DHT22;1797;51.844;7.684;2023-04-03T15:41:17;9.10;1.00
3566;DHT22;1797;51.844;7.684;2023-04-03T15:43:43;9.10;1.00
3566;DHT22;1797;51.844;7.684;2023-04-03T15:46:08;9.10;1.00
3566;DHT22;1797;51.844;7.684;2023-04-03T15:48:35;9.20;1.00
3566;DHT22;1797;51.844;7.684;2023-04-03T15:51:01;9.20;1.00
3566;DHT22;1797;51.844;7.684;2023-04-03T15:53:27;9.30;1.00
3566;DHT22;1797;51.844;7.684;2023-04-03T15:55:52;9.30;1.00
3566;DHT22;1797;51.844;7.684;2023-04-03T15:58:18;9.30;1.00
3566;DHT22;1797;51.844;7.684;2023-04-03T16:00:44;9.30;1.00
3566;DHT22;1797;51.844;7.684;2023-04-03T16:03:12;9.30;1.00
3566;DHT22;1797;51.844;7.684;2023-04-03T16:05:40;9.40;1.00
3566;DHT22;1797;51.844;7.684;2023-04-03T16:08:06;9.30;1.00
3566;DHT22;1797;51.844;7.684;2023-04-03T16:10:33;9.30;1.00
3566;DHT22;1797;51.844;7.684;2023-04-03T16:12:59;9.40;1.00
3566;DHT22;1797;51.844;7.684;2023-04-03T16:15:26;9.60;1.00
3566;DHT22;1797;51.844;7.684;2023-04-03T16:17:52;9.60;1.00
3566;DHT22;1797;51.844;7.684;2023-04-03T16:20:19;9.40;1.00
3566;DHT22;1797;51.844;7.684;2023-04-03T16:22:47;9.60;1.00
3566;DHT22;1797;51.844;7.684;2023-04-03T16:25:12;9.70;1.00
3566;DHT22;1797;51.844;7.684;2023-04-03T16:27:40;9.90;1.00
3566;DHT22;1797;51.844;7.684;2023-04-03T16:30:07;10.10;1.00
3566;DHT22;1797;51.844;7.684;2023-04-03T16:32:33;10.30;1.00
3566;DHT22;1797;51.844;7.684;2023-04-03T16:34:59;10.80;1.00
3566;DHT22;1797;51.844;7.684;2023-04-03T16:37:25;10.20;1.00
3566;DHT22;1797;51.844;7.684;2023-04-03T16:39:50;10.30;1.00
3566;DHT22;1797;51.844;7.684;2023-04-03T16:42:16;10.40;1.00
3566;DHT22;1797;51.844;7.684;2023-04-03T16:44:42;10.70;1.00
3566;DHT22;1797;51.844;7.684;2023-04-03T16:47:08;10.70;1.00
3566;DHT22;1797;51.844;7.684;2023-04-03T16:49:35;10.90;1.00
3566;DHT22;1797;51.844;7.684;2023-04-03T16:52:02;11.10;1.00
3566;DHT22;1797;51.844;7.684;2023-04-03T16:54:28;11.10;1.00
3566;DHT22;1797;51.844;7.684;2023-04-03T16:56:54;11.20;1.00
3566;DHT22;1797;51.844;7.684;2023-04-03T16:59:20;11.30;1.00
3566;DHT22;1797;51.844;7.684;2023-04-03T17:01:46;10.90;1.00
3566;DHT22;1797;51.844;7.684;2023-04-03T17:04:11;11.40;1.00
3566;DHT22;1797;51.844;7.684;2023-04-03T17:06:38;11.50;1.00
3566;DHT22;1797;51.844;7.684;2023-04-03T17:09:04;11.70;1.00
3566;DHT22;1797;51.844;7.684;2023-04-03T17:11:31;11.40;1.00
3566;DHT22;1797;51.844;7.684;2023-04-03T17:13:57;11.40;1.00
3566;DHT22;1797;51.844;7.684;2023-04-03T17:16:23;11.30;1.00
3566;DHT22;1797;51.844;7.684;2023-04-03T17:18:49;11.20;1.00
3566;DHT22;1797;51.844;7.684;2023-04-03T17:21:15;11.10;1.00
3566;DHT22;1797;51.844;7.684;2023-04-03T17:23:45;11.20;1.00
3566;DHT22;1797;51.844;7.684;2023-04-03T17:26:11;11.00;1.00
3566;DHT22;1797;51.844;7.684;2023-04-03T17:28:37;10.80;1.00
3566;DHT22;1797;51.844;7.684;2023-04-03T17:31:05;10.60;1.00
3566;DHT22;1797;51.844;7.684;2023-04-03T17:33:31;10.40;1.00
3566;DHT22;1797;51.844;7.684;2023-04-03T17:35:59;10.20;1.00
3566;DHT22;1797;51.844;7.684;2023-04-03T17:38:27;10.30;1.00
3566;DHT22;1797;51.844;7.684;2023-04-03T17:41:05;10.10;1.00
3566;DHT22;1797;51.844;7.684;2023-04-03T17:43:31;9.90;1.00
3566;DHT22;1797;51.844;7.684;2023-04-03T17:46:01;9.70;1.00
3566;DHT22;1797;51.844;7.684;2023-04-03T17:48:29;9.20;1.00
3566;DHT22;1797;51.844;7.684;2023-04-03T17:50:55;8.80;1.00
3566;DHT22;1797;51.844;7.684;2023-04-03T17:53:20;8.10;1.00
3566;DHT22;1797;51.844;7.684;2023-04-03T17:55:46;8.00;1.00
3566;DHT22;1797;51.844;7.684;2023-04-03T17:58:11;7.80;1.00
3566;DHT22;1797;51.844;7.684;2023-04-03T18:00:37;7.40;1.00
3566;DHT22;1797;51.844;7.684;2023-04-03T18:03:03;7.50;1.00
3566;DHT22;1797;51.844;7.684;2023-04-03T18:05:29;7.30;1.00
3566;DHT22;1797;51.844;7.684;2023-04-03T18:07:56;7.00;1.00
3566;DHT22;1797;51.844;7.684;2023-04-03T18:10:22;6.90;1.00